Flight Track Log - Related Links

Times and Time Zones

All times are in EST time to prevent confusion due to time zone crossing. See the EJM143 flight status page for this flight to view local times or setup timezone preferences in your user account.

Time Position Orientation Groundspeed Altitude Reporting Facility
EST Latitude Longitude Course Direction KTS MPH feet Rate Location/Type
Sun 07:16:02 PM 39.0667 -84.3667 113° Southeast 216 249 3,400  Level Cincinnati TRACON
Sun 07:16:50 PM 39.0797 -84.3331 63° Northeast 207 238 6,300 4,036 Climbing Indianapolis Center
Sun 07:17:52 PM 39.1289 -84.3967 315° West 244 281 10,800 4,065 Climbing Indianapolis Center
Sun 07:18:54 PM 39.1197 -84.5039 264° West 300 345 14,700 3,387 Climbing Indianapolis Center
Sun 07:19:56 PM 39.1147 -84.6189 267° West 322 371 17,800 3,194 Climbing Indianapolis Center
Sun 07:20:58 PM 39.1072 -84.7433 266° West 345 397 21,300 2,516 Climbing Indianapolis Center
Sun 07:22:00 PM 39.0992 -84.8917 266° West 361 415 23,000 1,645 Climbing Indianapolis Center
Sun 07:23:02 PM 39.0906 -85.0228 265° West 368 423 24,700 1,776 Climbing Indianapolis Center
Sun 07:24:05 PM 39.0825 -85.1561 266° West 374 430 26,700 1,920 Climbing Indianapolis Center
Sun 07:25:07 PM 39.0964 -85.2942 277° West 389 448 28,700 1,984 Climbing Indianapolis Center
Sun 07:26:09 PM 39.1189 -85.4333 282° West 398 458 30,800 1,597 Climbing Indianapolis Center
Sun 07:27:11 PM 39.1158 -85.5792 268° West 406 467 32,000 1,500 Climbing Indianapolis Center
Sun 07:28:13 PM 39.1036 -85.7539 265° West 408 470 33,900 1,887 Climbing Indianapolis Center
Sun 07:29:15 PM 39.0928 -85.8961 264° West 404 465 35,900 1,452 Climbing Indianapolis Center
Sun 07:30:17 PM 39.0831 -86.0358 265° West 395 455 36,900 1,161 Climbing Indianapolis Center
Sun 07:31:19 PM 39.0722 -86.1753 264° West 391 450 38,300 1,403 Climbing Indianapolis Center
Sun 07:32:21 PM 39.0611 -86.3122 264° West 386 444 39,800 823 Climbing Indianapolis Center
Sun 07:33:23 PM 39.0503 -86.4511 264° West 390 449 40,000 97 Climbing Indianapolis Center
Sun 07:34:25 PM 39.0389 -86.6092 265° West 412 474 40,000  Level Indianapolis Center
Sun 07:35:27 PM 39.0281 -86.7567 265° West 414 476 40,000  Level Indianapolis Center
Sun 07:36:29 PM 39.0150 -86.9328 265° West 414 476 40,000  Level Indianapolis Center
Sun 07:37:31 PM 39.0039 -87.0794 264° West 413 475 40,000  Level Indianapolis Center
Sun 07:38:33 PM 38.9928 -87.2267 264° West 414 476 40,000  Level Indianapolis Center
Sun 07:39:35 PM 38.9808 -87.3736 264° West 415 478 40,000  Level Indianapolis Center
Sun 07:40:37 PM 38.9697 -87.5200 264° West 413 475 40,000  Level Indianapolis Center
Sun 07:41:39 PM 38.9572 -87.6650 264° West 411 473 40,000  Level Indianapolis Center
Sun 07:42:41 PM 38.9422 -87.8392 264° West 410 472 40,000  Level Indianapolis Center
Sun 07:43:43 PM 38.9297 -87.9850 264° West 410 472 40,000  Level Indianapolis Center
Sun 07:45:34 PM 38.9064 -88.2492 264° West 409 471 40,000  Level Kansas City Center
Sun 07:46:37 PM 38.8922 -88.3944 263° West 408 470 40,000  Level Kansas City Center
Sun 07:47:38 PM 38.8783 -88.5408 263° West 411 473 40,000  Level Kansas City Center
Sun 07:48:39 PM 38.8664 -88.6917 264° West 408 470 40,000  Level Kansas City Center
Sun 07:49:41 PM 38.8519 -88.8375 263° West 412 474 40,000  Level Kansas City Center
Sun 07:50:45 PM 38.8394 -88.9836 264° West 412 474 40,000  Level Kansas City Center
Sun 07:51:45 PM 38.8283 -89.1300 264° West 414 476 40,000  Level Kansas City Center
Sun 07:52:46 PM 38.8103 -89.3058 263° West 415 478 40,000  Level Kansas City Center
Sun 07:53:50 PM 38.7967 -89.4525 263° West 415 478 40,000  Level Kansas City Center
Sun 07:54:51 PM 38.7819 -89.5994 263° West 417 480 40,000  Level Kansas City Center
Sun 07:55:52 PM 38.7675 -89.7481 263° West 421 484 40,000  Level Kansas City Center
Sun 07:56:56 PM 38.7528 -89.8947 263° West 418 481 40,000  Level Kansas City Center
Sun 07:57:58 PM 38.7367 -90.0578 263° West 415 478 40,000  Level Kansas City Center
Sun 07:58:58 PM 38.7208 -90.2050 262° West 415 478 40,000  Level Kansas City Center
Sun 08:00:02 PM 38.7061 -90.3519 263° West 415 478 40,000  Level Kansas City Center
Sun 08:01:02 PM 38.6914 -90.4994 263° West 416 479 40,000  Level Kansas City Center
Sun 08:02:07 PM 38.6725 -90.6469 261° West 419 482 40,000  Level Kansas City Center
Sun 08:03:07 PM 38.6539 -90.8186 262° West 419 482 40,000  Level Kansas City Center
Sun 08:04:08 PM 38.6378 -90.9656 262° West 419 482 40,000  Level Kansas City Center
Sun 08:05:11 PM 38.6225 -91.1117 262° West 417 480 40,000  Level Kansas City Center
Sun 08:06:12 PM 38.6061 -91.2578 262° West 417 480 40,000  Level Kansas City Center
Sun 08:07:16 PM 38.5892 -91.4117 262° West 417 480 40,000  Level Kansas City Center
Sun 08:08:16 PM 38.5722 -91.5556 261° West 412 474 40,000  Level Kansas City Center
Sun 08:09:20 PM 38.5556 -91.7008 262° West 413 475 40,000  Level Kansas City Center
Sun 08:10:21 PM 38.5350 -91.8753 261° West 414 476 40,000  Level Kansas City Center
Sun 08:11:21 PM 38.5175 -92.0194 261° West 413 475 40,000  Level Kansas City Center
Sun 08:12:23 PM 38.4992 -92.1611 261° West 409 471 40,000  Level Kansas City Center
Sun 08:13:26 PM 38.4819 -92.3033 261° West 408 470 40,000  Level Kansas City Center
Sun 08:14:29 PM 38.4644 -92.4428 261° West 402 463 40,000  Level Kansas City Center
Sun 08:15:29 PM 38.4461 -92.5825 261° West 401 461 40,000  Level Kansas City Center
Sun 08:16:31 PM 38.4253 -92.7511 261° West 403 464 40,000  Level Kansas City Center
Sun 08:17:32 PM 38.4075 -92.8892 261° West 399 459 40,000  Level Kansas City Center
Sun 08:18:35 PM 38.3897 -93.0286 261° West 398 458 40,000  Level Kansas City Center
Sun 08:19:37 PM 38.3711 -93.1681 260° West 400 460 40,000  Level Kansas City Center
Sun 08:20:37 PM 38.3531 -93.3064 261° West 397 457 40,000  Level Kansas City Center
Sun 08:21:40 PM 38.3347 -93.4450 260° West 397 457 40,000  Level Kansas City Center
Sun 08:22:41 PM 38.3161 -93.5831 260° West 396 456 40,000  Level Kansas City Center
Sun 08:23:45 PM 38.2936 -93.7483 260° West 395 455 40,000  Level Kansas City Center
Sun 08:24:45 PM 38.2753 -93.8858 260° West 395 455 40,000  Level Kansas City Center
Sun 08:25:48 PM 38.2581 -94.0242 261° West 396 456 40,000  Level Kansas City Center
Sun 08:26:50 PM 38.2378 -94.1581 259° West 399 459 40,000  Level Kansas City Center
Sun 08:27:49 PM 38.2158 -94.3139 260° West 401 461 40,000  Level Kansas City Center
Sun 08:28:53 PM 38.1975 -94.4467 260° West 399 459 40,000  Level Kansas City Center
Sun 08:29:52 PM 38.1750 -94.6033 260° West 401 461 40,000  Level Kansas City Center
Sun 08:30:57 PM 38.1553 -94.7389 260° West 405 466 40,000  Level Kansas City Center
Sun 08:31:59 PM 38.1350 -94.8781 260° West 413 475 40,000  Level Kansas City Center
Sun 08:32:58 PM 38.1125 -95.0350 260° West 407 468 40,000  Level Kansas City Center
Sun 08:34:00 PM 38.0919 -95.1717 259° West 409 471 40,000  Level Kansas City Center
Sun 08:35:02 PM 38.0669 -95.3328 259° West 416 479 40,000 -432 Level Kansas City Center
Sun 08:36:05 PM 38.0478 -95.4692 260° West 412 474 39,100 -1,680 Descending Kansas City Center
Sun 08:37:07 PM 38.0239 -95.6217 259° West 397 457 36,500 -2,488 Descending Kansas City Center
Sun 08:38:08 PM 38.0028 -95.7564 259° West 401 461 34,000 -2,537 Descending Kansas City Center
Sun 08:39:10 PM 37.9825 -95.8922 259° West 407 468 31,300 -2,857 Descending Kansas City Center
Sun 08:40:14 PM 37.9567 -96.0569 259° West 421 484 28,000 -2,880 Descending Kansas City Center
Sun 08:41:15 PM 37.9367 -96.1828 259° West 422 486 25,300 -3,098 Descending Kansas City Center
Sun 08:42:16 PM 37.9100 -96.3483 259° West 403 464 21,700 -3,246 Descending Kansas City Center
Sun 08:43:17 PM 37.8897 -96.4797 259° West 384 442 18,700 -3,000 Descending Kansas City Center
Sun 08:44:02 PM 37.8719 -96.5775 257° West 369 425 16,400 -2,952 Descending Kansas City Center
Sun 08:44:20 PM 37.8686 -96.6067 262° West 371 427 15,600 -3,153 Descending Kansas City Center
Sun 08:45:01 PM 37.8531 -96.7000 258° West 359 413 13,300 -2,903 Descending Kansas City Center
Sun 08:45:22 PM 37.8486 -96.7303 259° West 361 415 12,600 -2,323 Descending Kansas City Center
Sun 08:46:03 PM 37.8347 -96.8067 257° West 293 337 10,900 -2,129 Descending Kansas City Center
Sun 08:46:24 PM 37.8314 -96.8317 260° West 292 336 10,400 -1,672 Descending Kansas City Center
Sun 08:47:04 PM 37.8192 -96.9019 258° West 265 305 9,200 -1,672 Descending Kansas City Center
Sun 08:47:25 PM 37.8161 -96.9244 260° West 273 314 8,700 -1,770 Descending Kansas City Center
Sun 08:48:05 PM 37.8056 -96.9942 259° West 268 308 7,400 -1,672 Descending Kansas City Center
Sun 08:48:26 PM 37.8014 -97.0175 257° West 269 310 7,000 -1,800 Descending Kansas City Center
Sun 08:49:05 PM 37.7881 -97.0925 257° West 262 302 5,600 -1,875 Descending Kansas City Center
Sun 08:49:30 PM 37.7833 -97.1250 260° West 262 302 5,000 -1,645 Descending Kansas City Center
Sun 08:50:07 PM 37.7739 -97.1819 258° West 263 303 3,900 -1,672 Descending Kansas City Center
Sun 08:50:31 PM 37.7683 -97.2147 258° West 262 302 3,300 -931 Descending Kansas City Center
Sun 08:51:05 PM 37.7589 -97.2639 256° West 240 276 3,000 -290 Descending Kansas City Center
Sun 08:51:33 PM 37.7553 -97.2914 261° West 239 275 3,000  Level Kansas City Center
Sun 08:52:06 PM 37.7486 -97.3292 257° West 178 205 3,000  Level Kansas City Center
Sun 08:52:33 PM 37.7458 -97.3556 262° West 205 236 3,000 -197 Level Kansas City Center
Sun 08:53:07 PM 37.7331 -97.3844 241° Southwest 163 188 2,800 -469 Descending Kansas City Center
Sun 08:53:37 PM 37.7169 -97.3925 202° Southwest 181 208 2,500 -667 Descending Kansas City Center
Sun 08:54:01 PM 37.6989 -97.4003 199° South 120 138 2,200 -590 Descending Kansas City Center
Sun 08:54:38 PM 37.6850 -97.4069 201° Southwest 144 166 1,900 -590 Descending Kansas City Center
Sun 08:55:02 PM 37.6686 -97.4156 203° Southwest 110 127 1,600 -500 Descending Kansas City Center
Sun 08:55:38 PM 37.6525 -97.4219 197° South 128 147 1,400 -333 Descending Kansas City Center

Login

Don't have an account? Register now (free) for customized features, flight alerts, and more!